Time;durP1;ratioP1;P1;durP2;ratioP2;P2;SDS_P1;SDS_P2;PMS_P1;PMS_P2;Temp;Humidity;BMP_temperature;BMP_pressure;BME280_temperature;BME280_humidity;BME280_pressure;Samples;Min_cycle;Max_cycle;Signal;HPM_P1;HPM_P2
2023/01/25 00:00:08;;;;;;;;;;;;;;;4.87;72.07;102032.69;5391728;32;34645;-80
2023/01/25 00:03:10;;;;;;;;;;;;;;;5.24;69.97;102032.19;5410204;32;34556;-79
2023/01/25 00:06:11;;;;;;;;;;;;;;;6.13;66.66;102028.53;5383632;32;34844;-73
2023/01/25 00:09:14;;;;;;;;;;;;;;;5.78;66.41;102034.34;5406858;32;35426;-79
2023/01/25 00:12:16;;;;;;;;;;;;;;;5.39;69.34;102048.84;5392806;32;35613;-79
2023/01/25 00:15:18;;;;;;;;;;;;;;;4.93;71.37;102046.66;5392883;32;43625;-74
2023/01/25 00:18:20;;;;;;;;;;;;;;;5.40;69.05;102053.19;5398761;32;35215;-80
2023/01/25 00:21:22;;;;;;;;;;;;;;;5.94;67.25;102049.28;5394346;32;34991;-79
2023/01/25 00:24:25;;;;;;;;;;;;;;;6.30;64.79;102032.06;5403688;32;34269;-76
2023/01/25 00:27:27;;;;;;;;;;;;;;;5.90;65.60;102046.63;5397246;32;34858;-79
2023/01/25 00:30:28;;;;;;;;;;;;;;;5.33;67.39;102045.31;5406197;32;35562;-74
2023/01/25 00:33:39;;;;;;;;;;;;;;;5.16;68.76;102046.03;5394207;32;35377;-80
2023/01/25 00:36:41;;;;;;;;;;;;;;;5.66;67.86;102042.97;5398520;32;33284;-75
2023/01/25 00:39:43;;;;;;;;;;;;;;;5.61;67.02;102039.47;5405630;32;35691;-80
2023/01/25 00:42:44;;;;;;;;;;;;;;;5.62;68.12;102042.94;5395243;32;34935;-75
2023/01/25 00:45:46;;;;;;;;;;;;;;;5.09;68.79;102045.97;5409644;32;43804;-78
2023/01/25 00:48:48;;;;;;;;;;;;;;;5.35;69.19;102044.47;5398449;32;34554;-75
2023/01/25 00:51:51;;;;;;;;;;;;;;;4.73;71.28;102046.44;5374663;32;34868;-79
2023/01/25 00:54:53;;;;;;;;;;;;;;;5.01;68.75;102047.59;5392285;32;34895;-74
2023/01/25 00:57:54;;;;;;;;;;;;;;;5.06;69.12;102052.00;5398124;32;34142;-79
2023/01/25 01:00:56;;;;;;;;;;;;;;;5.02;69.08;102059.78;5410536;32;35293;-79
2023/01/25 01:03:58;;;;;;;;;;;;;;;5.54;67.48;102052.44;5391264;32;34580;-74
2023/01/25 01:07:00;;;;;;;;;;;;;;;5.84;66.63;102049.19;5395140;32;34708;-74
2023/01/25 01:10:03;;;;;;;;;;;;;;;5.29;67.34;102053.97;5387349;32;34883;-75
2023/01/25 01:13:05;;;;;;;;;;;;;;;4.93;68.99;102057.94;5401881;32;34757;-74
2023/01/25 01:16:10;;;;;;;;;;;;;;;4.87;69.29;102058.75;5395477;32;34903;-76
2023/01/25 01:19:12;;;;;;;;;;;;;;;4.50;70.02;102065.25;5394931;32;34482;-74
2023/01/25 01:22:14;;;;;;;;;;;;;;;4.46;70.50;102062.62;5407578;32;35103;-78
2023/01/25 01:25:16;;;;;;;;;;;;;;;5.04;69.19;102063.28;5391165;32;45319;-75
2023/01/25 01:28:18;;;;;;;;;;;;;;;4.69;70.24;102066.34;5406831;32;35116;-79
2023/01/25 01:31:21;;;;;;;;;;;;;;;4.15;72.19;102076.94;5394864;32;35388;-74
2023/01/25 01:34:23;;;;;;;;;;;;;;;4.66;70.23;102061.13;5409918;32;35394;-78
2023/01/25 01:37:25;;;;;;;;;;;;;;;4.23;71.72;102059.69;5397874;32;35051;-75
2023/01/25 01:40:27;;;;;;;;;;;;;;;5.00;69.98;102071.91;5398591;32;36796;-80
2023/01/25 01:43:32;;;;;;;;;;;;;;;4.81;69.58;102065.62;5409542;32;35021;-74
2023/01/25 01:46:36;;;;;;;;;;;;;;;4.72;69.55;102063.81;5382841;32;34717;-79
2023/01/25 01:49:38;;;;;;;;;;;;;;;4.79;69.88;102059.53;5407457;32;35591;-74
2023/01/25 01:52:40;;;;;;;;;;;;;;;5.31;67.32;102057.47;5378510;32;34330;-73
2023/01/25 01:55:42;;;;;;;;;;;;;;;5.25;67.97;102055.66;5403039;32;34237;-77
2023/01/25 01:58:44;;;;;;;;;;;;;;;5.35;67.42;102051.44;5398154;32;34558;-78
2023/01/25 02:01:45;;;;;;;;;;;;;;;5.13;68.34;102056.41;5392565;32;34767;-79
2023/01/25 02:04:47;;;;;;;;;;;;;;;5.57;66.40;102049.84;5401260;32;45857;-78
2023/01/25 02:07:50;;;;;;;;;;;;;;;5.01;68.40;102045.00;5383882;32;35335;-79
2023/01/25 02:10:52;;;;;;;;;;;;;;;4.37;70.74;102041.66;5389833;32;35217;-74
2023/01/25 02:13:54;;;;;;;;;;;;;;;4.59;69.78;102038.47;5373847;32;34852;-79
2023/01/25 02:16:56;;;;;;;;;;;;;;;4.32;70.59;102047.69;5379455;32;35327;-78
2023/01/25 02:20:17;;;;;;;;;;;;;;;4.50;69.37;102044.44;5401151;32;34888;-80
2023/01/25 02:23:37;;;;;;;;;;;;;;;4.41;71.43;102048.66;5389934;32;44644;-74
2023/01/25 02:26:39;;;;;;;;;;;;;;;3.80;73.64;102049.56;5405792;32;34729;-74
2023/01/25 02:29:41;;;;;;;;;;;;;;;4.12;70.95;102046.53;5380582;32;34604;-79
2023/01/25 02:32:43;;;;;;;;;;;;;;;4.88;68.59;102042.25;5404163;32;33639;-74
2023/01/25 02:35:46;;;;;;;;;;;;;;;4.27;70.24;102038.94;5399304;32;34832;-78
2023/01/25 02:39:05;;;;;;;;;;;;;;;4.34;70.47;102038.16;5391528;32;46087;-79
2023/01/25 02:42:07;;;;;;;;;;;;;;;4.83;68.49;102027.44;5407329;32;36435;-74
2023/01/25 02:45:09;;;;;;;;;;;;;;;4.98;67.61;102022.41;5395444;32;34496;-77
2023/01/25 02:48:11;;;;;;;;;;;;;;;4.08;71.34;102019.59;5406806;32;35478;-74
2023/01/25 02:51:13;;;;;;;;;;;;;;;4.28;69.69;102017.25;5379100;32;34701;-74
2023/01/25 02:54:16;;;;;;;;;;;;;;;4.57;69.16;102009.81;5382440;32;35359;-79
2023/01/25 02:57:18;;;;;;;;;;;;;;;3.87;72.26;102018.44;5405603;32;45465;-77
2023/01/25 03:00:23;;;;;;;;;;;;;;;4.44;70.13;102012.22;5379570;32;36459;-77
2023/01/25 03:03:25;;;;;;;;;;;;;;;3.84;71.19;102008.84;5404319;32;36676;-73
2023/01/25 03:06:27;;;;;;;;;;;;;;;4.19;70.88;102018.88;5386258;32;34592;-78
2023/01/25 03:09:29;;;;;;;;;;;;;;;3.93;70.77;102023.72;5406182;32;34933;-78
2023/01/25 03:12:31;;;;;;;;;;;;;;;4.23;69.91;102002.44;5391363;32;34825;-80
2023/01/25 03:15:33;;;;;;;;;;;;;;;3.10;75.05;102012.03;5396874;32;35065;-74
2023/01/25 03:18:35;;;;;;;;;;;;;;;3.72;72.76;102012.16;5400402;32;35611;-74
2023/01/25 03:21:36;;;;;;;;;;;;;;;4.17;71.35;102013.63;5395168;32;34978;-80
2023/01/25 03:24:38;;;;;;;;;;;;;;;3.97;71.00;102008.16;5405704;32;35317;-74
2023/01/25 03:27:40;;;;;;;;;;;;;;;5.16;66.34;101990.44;5396709;32;34872;-74
2023/01/25 03:30:42;;;;;;;;;;;;;;;3.56;71.54;101999.78;5409333;32;35225;-79
2023/01/25 03:33:44;;;;;;;;;;;;;;;3.83;72.37;102004.50;5395024;32;34913;-73
2023/01/25 03:36:46;;;;;;;;;;;;;;;3.29;74.77;102005.41;5402164;32;34978;-79
2023/01/25 03:39:48;;;;;;;;;;;;;;;3.19;75.02;102019.97;5409325;32;36303;-74
2023/01/25 03:42:51;;;;;;;;;;;;;;;3.48;74.06;102012.66;5398042;32;34527;-74
2023/01/25 03:45:53;;;;;;;;;;;;;;;3.55;73.64;102020.56;5410276;32;35521;-75
2023/01/25 03:48:55;;;;;;;;;;;;;;;3.13;73.98;102011.19;5394735;32;34714;-74
2023/01/25 03:51:57;;;;;;;;;;;;;;;3.55;72.89;102011.03;5388959;32;34255;-79
2023/01/25 03:54:59;;;;;;;;;;;;;;;2.89;73.90;102011.62;5396095;32;35052;-74
2023/01/25 03:58:01;;;;;;;;;;;;;;;3.20;75.32;102011.31;5398593;32;35164;-78
2023/01/25 04:01:03;;;;;;;;;;;;;;;3.15;75.33;102007.75;5408050;32;35059;-78
2023/01/25 04:04:06;;;;;;;;;;;;;;;3.40;72.95;102006.44;5390257;32;34582;-74
2023/01/25 04:07:07;;;;;;;;;;;;;;;3.35;73.26;102010.72;5402763;32;35262;-74
2023/01/25 04:10:09;;;;;;;;;;;;;;;3.44;72.75;102002.19;5397320;32;35066;-74
2023/01/25 04:13:11;;;;;;;;;;;;;;;3.68;72.29;102004.28;5402320;32;35507;-74
2023/01/25 04:16:13;;;;;;;;;;;;;;;3.00;74.38;102015.31;5390526;32;35096;-74
2023/01/25 04:19:15;;;;;;;;;;;;;;;2.97;74.21;102018.72;5396499;32;34927;-78
2023/01/25 04:22:17;;;;;;;;;;;;;;;3.48;72.12;102020.47;5404157;32;45275;-74
2023/01/25 04:25:19;;;;;;;;;;;;;;;3.31;71.11;102021.03;5397402;32;34720;-79
2023/01/25 04:28:21;;;;;;;;;;;;;;;3.34;71.30;102014.16;5408396;32;34852;-74
2023/01/25 04:31:23;;;;;;;;;;;;;;;3.03;72.78;102025.75;5391910;32;34847;-74
2023/01/25 04:34:25;;;;;;;;;;;;;;;3.10;73.01;102027.63;5402265;32;35776;-78
2023/01/25 04:37:27;;;;;;;;;;;;;;;2.87;74.12;102032.38;5394023;32;34587;-73
2023/01/25 04:40:29;;;;;;;;;;;;;;;2.71;74.50;102030.34;5398267;32;35008;-74
2023/01/25 04:43:31;;;;;;;;;;;;;;;2.46;74.21;102031.59;5406206;32;34818;-74
2023/01/25 04:46:33;;;;;;;;;;;;;;;2.80;73.10;102027.91;5393181;32;36278;-73
2023/01/25 04:49:35;;;;;;;;;;;;;;;2.62;72.57;102025.84;5408885;32;35437;-74
2023/01/25 04:52:37;;;;;;;;;;;;;;;4.17;67.84;102017.97;5374468;32;35369;-79
2023/01/25 04:55:39;;;;;;;;;;;;;;;3.34;70.03;102021.06;5409317;32;34758;-79
2023/01/25 04:58:41;;;;;;;;;;;;;;;2.15;73.89;102020.56;5396788;32;35439;-78
2023/01/25 05:01:43;;;;;;;;;;;;;;;2.38;73.51;102025.34;5397307;32;34959;-80
2023/01/25 05:04:44;;;;;;;;;;;;;;;2.28;76.72;102028.62;5393439;32;35872;-80
2023/01/25 05:07:46;;;;;;;;;;;;;;;2.97;73.56;102016.13;5389035;32;44693;-79
2023/01/25 05:10:48;;;;;;;;;;;;;;;2.20;75.88;102012.87;5408512;32;34918;-75
2023/01/25 05:13:50;;;;;;;;;;;;;;;2.80;74.08;102027.06;5391307;32;35472;-80
2023/01/25 05:16:52;;;;;;;;;;;;;;;2.85;74.93;102025.41;5402167;32;34773;-74
2023/01/25 05:19:54;;;;;;;;;;;;;;;3.16;73.37;102025.12;5396874;32;32672;-75
2023/01/25 05:22:56;;;;;;;;;;;;;;;3.33;72.48;102025.41;5392120;32;34372;-80
2023/01/25 05:29:19;;;;;;;;;;;;;;;3.86;71.54;102019.28;5371633;32;43143;-75
2023/01/25 05:32:21;;;;;;;;;;;;;;;4.13;70.20;102019.69;5398074;32;35000;-79
2023/01/25 05:35:23;;;;;;;;;;;;;;;4.07;69.96;102015.25;5396301;32;34108;-78
2023/01/25 05:38:25;;;;;;;;;;;;;;;3.60;69.60;102027.56;5401477;32;36086;-77
2023/01/25 05:41:27;;;;;;;;;;;;;;;3.15;72.69;102035.47;5403048;32;35205;-79
2023/01/25 05:44:29;;;;;;;;;;;;;;;3.44;73.80;102034.25;5395743;32;35469;-79
2023/01/25 05:47:31;;;;;;;;;;;;;;;4.54;67.90;102014.09;5394077;32;34436;-78
2023/01/25 05:50:33;;;;;;;;;;;;;;;3.14;72.01;102028.53;5387020;32;34151;-75
2023/01/25 05:53:35;;;;;;;;;;;;;;;3.43;71.99;102021.25;5397723;32;34896;-80
2023/01/25 05:56:37;;;;;;;;;;;;;;;4.11;69.37;102018.75;5393821;32;34710;-74
2023/01/25 05:59:39;;;;;;;;;;;;;;;4.41;68.36;102020.03;5389145;32;35252;-79
2023/01/25 06:02:41;;;;;;;;;;;;;;;4.71;66.57;102016.91;5399003;32;35841;-79
2023/01/25 06:05:42;;;;;;;;;;;;;;;4.31;67.57;102014.69;5383230;32;34506;-79
2023/01/25 06:08:44;;;;;;;;;;;;;;;3.07;70.79;102027.53;5400719;32;34774;-74
2023/01/25 06:11:46;;;;;;;;;;;;;;;3.69;71.17;102030.31;5389895;32;45100;-74
2023/01/25 06:14:48;;;;;;;;;;;;;;;3.26;71.38;102036.53;5400688;32;34381;-75
2023/01/25 06:17:54;;;;;;;;;;;;;;;3.62;70.70;102038.88;5403926;32;35245;-79
2023/01/25 06:20:56;;;;;;;;;;;;;;;3.87;70.69;102031.44;5400221;32;34168;-79
2023/01/25 06:23:58;;;;;;;;;;;;;;;3.63;69.28;102026.75;5395989;32;34851;-74
2023/01/25 06:27:00;;;;;;;;;;;;;;;4.68;66.84;102042.91;5393106;32;34980;-78
2023/01/25 06:30:03;;;;;;;;;;;;;;;3.64;70.25;102049.28;5393731;32;35400;-79
2023/01/25 06:33:07;;;;;;;;;;;;;;;4.43;67.87;102041.72;5385768;32;34960;-79
2023/01/25 06:36:10;;;;;;;;;;;;;;;4.46;67.39;102050.47;5408127;32;34594;-74
2023/01/25 06:39:12;;;;;;;;;;;;;;;4.12;68.67;102036.13;5383614;32;34379;-75
2023/01/25 06:42:14;;;;;;;;;;;;;;;4.89;64.90;102044.03;5389312;32;34783;-85
2023/01/25 06:45:16;;;;;;;;;;;;;;;3.87;68.47;102055.72;5403815;32;45592;-88
2023/01/25 06:48:19;;;;;;;;;;;;;;;3.73;68.81;102057.22;5393585;32;35492;-91
2023/01/25 06:51:20;;;;;;;;;;;;;;;4.08;68.43;102058.62;5385128;32;32410;-81
2023/01/25 06:54:23;;;;;;;;;;;;;;;4.83;65.26;102046.56;5384457;32;34929;-75
2023/01/25 06:57:25;;;;;;;;;;;;;;;5.13;63.20;102037.31;5396639;32;35370;-76
2023/01/25 07:00:29;;;;;;;;;;;;;;;4.80;64.95;102038.72;5394953;32;35975;-80
2023/01/25 07:03:31;;;;;;;;;;;;;;;5.01;63.88;102037.19;5395801;32;35201;-85
2023/01/25 07:06:33;;;;;;;;;;;;;;;4.16;65.38;102056.13;5405087;32;35938;-84
2023/01/25 07:09:35;;;;;;;;;;;;;;;3.58;70.76;102060.47;5411991;32;34394;-75
2023/01/25 07:12:37;;;;;;;;;;;;;;;2.83;71.64;102058.25;5392761;32;34212;-71
2023/01/25 07:15:39;;;;;;;;;;;;;;;3.19;73.12;102058.94;5391221;32;34326;-86
2023/01/25 07:18:42;;;;;;;;;;;;;;;4.15;69.23;102050.91;5399199;32;33007;-80
2023/01/25 07:21:45;;;;;;;;;;;;;;;3.85;69.16;102057.41;5387567;32;34201;-71
2023/01/25 07:24:49;;;;;;;;;;;;;;;3.82;69.23;102046.13;5392295;32;44397;-86
2023/01/25 07:27:51;;;;;;;;;;;;;;;4.41;68.75;102038.25;5397004;32;36344;-75
2023/01/25 07:30:53;;;;;;;;;;;;;;;4.60;66.75;102048.91;5390644;32;34471;-74
2023/01/25 07:33:56;;;;;;;;;;;;;;;3.95;68.52;102041.09;5398352;32;36140;-76
2023/01/25 07:36:58;;;;;;;;;;;;;;;4.17;69.21;102047.47;5388024;32;34409;-73
2023/01/25 07:40:00;;;;;;;;;;;;;;;4.58;66.89;102040.22;5395490;32;34324;-76
2023/01/25 07:43:02;;;;;;;;;;;;;;;4.79;66.59;102038.69;5389214;32;34231;-74
2023/01/25 07:46:05;;;;;;;;;;;;;;;4.29;66.99;102045.03;5393577;32;35430;-76
2023/01/25 07:49:08;;;;;;;;;;;;;;;4.65;66.36;102037.69;5395512;32;35019;-76
2023/01/25 07:52:10;;;;;;;;;;;;;;;4.56;67.71;102041.91;5368764;32;34818;-82
2023/01/25 07:55:12;;;;;;;;;;;;;;;4.50;67.36;102040.94;5403969;32;36348;-76
2023/01/25 07:58:14;;;;;;;;;;;;;;;5.72;63.18;102034.31;5392866;32;35233;-74
2023/01/25 08:01:17;;;;;;;;;;;;;;;5.70;63.38;102046.47;5397757;32;44701;-75
2023/01/25 08:04:19;;;;;;;;;;;;;;;5.52;63.45;102042.00;5389553;32;34301;-82
2023/01/25 08:07:22;;;;;;;;;;;;;;;5.66;61.91;102034.25;5388800;32;34934;-72
2023/01/25 08:10:24;;;;;;;;;;;;;;;4.80;66.42;102043.03;5402336;32;35979;-72
2023/01/25 08:13:26;;;;;;;;;;;;;;;5.66;63.43;102045.56;5391642;32;34449;-77
2023/01/25 08:16:28;;;;;;;;;;;;;;;4.36;66.80;102046.00;5400833;32;34155;-87
2023/01/25 08:19:30;;;;;;;;;;;;;;;5.63;64.19;102039.47;5393007;32;35875;-76
2023/01/25 08:22:35;;;;;;;;;;;;;;;5.94;61.37;102038.00;5400084;32;35529;-70
2023/01/25 08:25:38;;;;;;;;;;;;;;;5.13;64.33;102034.69;5393382;32;34291;-76
2023/01/25 08:28:40;;;;;;;;;;;;;;;4.26;67.10;102038.94;5379669;32;34438;-74
2023/01/25 08:31:43;;;;;;;;;;;;;;;5.23;64.47;102026.13;5404568;32;34240;-71
2023/01/25 08:34:46;;;;;;;;;;;;;;;5.95;62.67;102034.50;5388188;32;44799;-71
2023/01/25 08:37:48;;;;;;;;;;;;;;;5.07;63.93;102032.03;5403302;32;34313;-75
2023/01/25 08:40:50;;;;;;;;;;;;;;;6.01;62.18;102026.72;5394042;32;35621;-76
2023/01/25 08:43:53;;;;;;;;;;;;;;;7.18;58.43;102023.63;5392218;32;38161;-83
2023/01/25 08:46:55;;;;;;;;;;;;;;;7.03;58.21;102021.00;5400681;32;36312;-70
2023/01/25 08:49:57;;;;;;;;;;;;;;;5.48;61.54;102027.19;5390596;32;35906;-73
2023/01/25 08:52:59;;;;;;;;;;;;;;;5.68;62.42;102029.94;5381606;32;36628;-72
2023/01/25 08:56:02;;;;;;;;;;;;;;;6.97;58.17;102021.84;5390245;32;35200;-72
2023/01/25 08:59:04;;;;;;;;;;;;;;;6.08;59.89;102017.19;5403197;32;33547;-72
2023/01/25 09:02:08;;;;;;;;;;;;;;;6.06;58.53;102017.19;5393128;32;34685;-69
2023/01/25 09:05:10;;;;;;;;;;;;;;;5.44;61.59;102023.69;5395668;32;35934;-75
2023/01/25 09:08:12;;;;;;;;;;;;;;;5.35;62.50;102022.75;5392224;32;34313;-74
2023/01/25 09:11:15;;;;;;;;;;;;;;;6.48;58.53;102015.63;5386030;32;35515;-73
2023/01/25 09:14:17;;;;;;;;;;;;;;;6.53;58.78;102015.66;5394442;32;44421;-72
2023/01/25 09:17:19;;;;;;;;;;;;;;;5.34;61.58;102027.06;5391940;32;34244;-75
2023/01/25 09:20:22;;;;;;;;;;;;;;;4.93;63.29;102028.41;5381113;32;35155;-75
2023/01/25 09:23:24;;;;;;;;;;;;;;;5.23;63.36;102023.50;5387894;32;35392;-78
2023/01/25 09:26:26;;;;;;;;;;;;;;;5.48;61.32;102014.16;5404803;32;34198;-76
2023/01/25 09:29:28;;;;;;;;;;;;;;;5.52;61.57;102009.81;5403776;32;34501;-79
2023/01/25 09:32:30;;;;;;;;;;;;;;;6.55;58.13;102004.31;5390199;32;38234;-75
2023/01/25 09:35:32;;;;;;;;;;;;;;;5.34;62.26;102011.41;5416717;32;35312;-77
2023/01/25 09:38:34;;;;;;;;;;;;;;;6.19;59.02;102007.69;5403133;32;34931;-88
2023/01/25 09:41:41;;;;;;;;;;;;;;;5.09;61.85;102012.97;5414864;32;34398;-88
2023/01/25 09:44:57;;;;;;;;;;;;;;;5.02;64.11;102010.25;5378309;32;34845;-78
2023/01/25 09:47:59;;;;;;;;;;;;;;;5.60;62.04;102014.25;5395103;32;38380;-77
2023/01/25 09:51:16;;;;;;;;;;;;;;;5.41;63.21;102008.03;5390804;32;36002;-77
2023/01/25 09:54:19;;;;;;;;;;;;;;;4.99;65.37;101998.09;5392974;32;44705;-90
2023/01/25 09:57:24;;;;;;;;;;;;;;;5.15;64.76;101988.66;5423718;32;34537;-72
2023/01/25 10:00:29;;;;;;;;;;;;;;;4.89;63.97;101993.63;5393398;32;34722;-75
2023/01/25 10:03:39;;;;;;;;;;;;;;;5.00;63.95;101984.19;5399151;32;34492;-72
2023/01/25 10:06:41;;;;;;;;;;;;;;;5.08;64.19;101969.50;5399728;32;35363;-77
2023/01/25 10:09:55;;;;;;;;;;;;;;;5.92;61.86;101964.88;5388174;32;44583;-71
2023/01/25 10:12:57;;;;;;;;;;;;;;;6.32;60.05;101959.84;5406659;32;35409;-77
2023/01/25 10:16:06;;;;;;;;;;;;;;;5.70;61.63;101955.19;5393520;32;33104;-79
2023/01/25 10:19:28;;;;;;;;;;;;;;;6.36;59.59;101948.53;5398834;32;45061;-84
2023/01/25 10:22:34;;;;;;;;;;;;;;;7.24;56.25;101939.06;5391148;32;33172;-76
2023/01/25 10:25:36;;;;;;;;;;;;;;;6.68;58.30;101927.72;5391822;32;34446;-72
2023/01/25 10:28:40;;;;;;;;;;;;;;;6.04;60.64;101935.37;5400653;32;34824;-81
2023/01/25 10:31:52;;;;;;;;;;;;;;;6.57;57.81;101939.91;5387419;32;35714;-78
2023/01/25 10:34:55;;;;;;;;;;;;;;;5.74;61.46;101938.69;5401431;32;46046;-76
2023/01/25 10:37:58;;;;;;;;;;;;;;;6.25;60.58;101929.38;5393062;32;35414;-80
2023/01/25 10:41:10;;;;;;;;;;;;;;;5.57;62.25;101924.66;5389859;32;36752;-76
2023/01/25 10:44:22;;;;;;;;;;;;;;;6.35;61.05;101925.91;5401881;32;36222;-72
2023/01/25 10:47:28;;;;;;;;;;;;;;;5.76;61.23;101923.91;5392815;32;44622;-75
2023/01/25 10:50:45;;;;;;;;;;;;;;;5.50;61.59;101921.16;5396627;32;36140;-72
2023/01/25 10:53:47;;;;;;;;;;;;;;;5.81;62.16;101913.50;5374042;32;45200;-73
2023/01/25 10:56:50;;;;;;;;;;;;;;;6.02;60.34;101908.41;5378722;32;35352;-79
2023/01/25 10:59:52;;;;;;;;;;;;;;;7.04;58.04;101905.09;5395131;32;34223;-80
2023/01/25 11:02:54;;;;;;;;;;;;;;;7.29;56.25;101900.72;5360206;32;34266;-77
2023/01/25 11:05:56;;;;;;;;;;;;;;;7.57;55.44;101891.94;5403106;32;34901;-80
2023/01/25 11:08:58;;;;;;;;;;;;;;;6.67;57.81;101898.97;5395285;32;34685;-77
2023/01/25 11:12:01;;;;;;;;;;;;;;;5.90;60.60;101897.87;5367128;32;36829;-77
2023/01/25 11:15:21;;;;;;;;;;;;;;;6.96;57.36;101888.56;5393835;32;35420;-77
2023/01/25 11:18:24;;;;;;;;;;;;;;;5.76;60.63;101887.37;5384296;32;44594;-79
2023/01/25 11:21:28;;;;;;;;;;;;;;;6.34;58.57;101884.13;5397583;32;35373;-79
2023/01/25 11:24:31;;;;;;;;;;;;;;;5.76;60.95;101876.06;5389323;32;35470;-82
2023/01/25 11:27:33;;;;;;;;;;;;;;;6.03;59.38;101870.97;5399825;32;34284;-78
2023/01/25 11:30:35;;;;;;;;;;;;;;;5.80;60.02;101864.78;5391711;32;34904;-82
2023/01/25 11:33:38;;;;;;;;;;;;;;;5.57;61.10;101856.84;5397131;32;33957;-79
2023/01/25 11:36:41;;;;;;;;;;;;;;;6.22;59.71;101851.03;5387386;32;34273;-81
2023/01/25 11:39:47;;;;;;;;;;;;;;;5.54;61.18;101844.69;5390078;32;34352;-72
2023/01/25 11:42:58;;;;;;;;;;;;;;;6.34;59.45;101835.38;5399584;32;44496;-71
2023/01/25 11:46:16;;;;;;;;;;;;;;;5.54;62.14;101829.03;5366684;32;35684;-72
2023/01/25 11:49:20;;;;;;;;;;;;;;;5.83;61.09;101828.25;5393723;32;44340;-70
2023/01/25 11:52:25;;;;;;;;;;;;;;;6.49;59.97;101816.22;5378308;32;34414;-79
2023/01/25 11:55:28;;;;;;;;;;;;;;;6.03;60.88;101805.72;5394252;32;35347;-79
2023/01/25 11:58:49;;;;;;;;;;;;;;;7.96;54.95;101785.31;5393147;32;35178;-70
2023/01/25 12:01:57;;;;;;;;;;;;;;;7.13;56.49;101776.09;5376356;32;44681;-71
2023/01/25 12:05:19;;;;;;;;;;;;;;;7.49;55.68;101777.72;5407956;32;34849;-71
2023/01/25 12:08:26;;;;;;;;;;;;;;;5.69;61.33;101784.75;5376434;32;45237;-79
2023/01/25 12:11:45;;;;;;;;;;;;;;;5.74;61.31;101774.31;5391896;32;35357;-79
2023/01/25 12:14:56;;;;;;;;;;;;;;;5.70;60.89;101783.00;5401743;32;46087;-84
2023/01/25 12:18:01;;;;;;;;;;;;;;;6.30;60.11;101768.34;5395051;32;35319;-76
2023/01/25 12:21:04;;;;;;;;;;;;;;;6.61;58.58;101763.13;5400499;32;32873;-76
2023/01/25 12:24:27;;;;;;;;;;;;;;;6.87;58.21;101755.25;5389641;32;35761;-70
2023/01/25 12:27:38;;;;;;;;;;;;;;;7.00;57.67;101756.94;5392647;32;35302;-74
2023/01/25 12:30:42;;;;;;;;;;;;;;;6.66;58.71;101756.16;5404409;32;34294;-73
2023/01/25 12:34:01;;;;;;;;;;;;;;;6.06;59.86;101768.34;5389666;32;35052;-74
2023/01/25 12:37:07;;;;;;;;;;;;;;;6.47;59.53;101753.56;5406023;32;35256;-75
2023/01/25 12:40:29;;;;;;;;;;;;;;;6.56;59.28;101750.06;5397533;32;34356;-76
2023/01/25 12:43:32;;;;;;;;;;;;;;;7.41;56.62;101742.88;5389744;32;34398;-84
2023/01/25 12:46:42;;;;;;;;;;;;;;;6.61;59.35;101750.06;5402618;32;34031;-70
2023/01/25 12:50:01;;;;;;;;;;;;;;;6.13;60.34;101741.38;5400210;32;34417;-79
2023/01/25 12:53:17;;;;;;;;;;;;;;;6.06;60.06;101740.50;5383151;32;34402;-77
2023/01/25 12:56:35;;;;;;;;;;;;;;;5.61;61.37;101743.84;5402935;32;44687;-78
2023/01/25 12:59:46;;;;;;;;;;;;;;;6.35;59.74;101734.41;5396376;32;35501;-77
2023/01/25 13:03:01;;;;;;;;;;;;;;;7.85;55.76;101725.16;5389287;32;44631;-77
2023/01/25 13:06:03;;;;;;;;;;;;;;;7.53;56.43;101719.25;5398715;32;34286;-78
2023/01/25 13:09:23;;;;;;;;;;;;;;;6.45;60.09;101721.34;5403491;32;34259;-77
2023/01/25 13:12:25;;;;;;;;;;;;;;;7.44;57.08;101709.72;5407818;32;44531;-90
2023/01/25 13:15:40;;;;;;;;;;;;;;;7.65;56.28;101702.62;5392217;32;35109;-82
2023/01/25 13:18:43;;;;;;;;;;;;;;;7.22;57.55;101705.47;5408069;32;34652;-71
2023/01/25 13:21:45;;;;;;;;;;;;;;;7.09;56.64;101706.41;5390187;32;34236;-68
2023/01/25 13:25:03;;;;;;;;;;;;;;;6.73;58.04;101695.19;5406785;32;46622;-88
2023/01/25 13:28:28;;;;;;;;;;;;;;;6.10;60.64;101700.47;5399302;32;37135;-85
2023/01/25 13:31:39;;;;;;;;;;;;;;;6.55;59.76;101706.53;5387749;32;34439;-74
2023/01/25 13:35:00;;;;;;;;;;;;;;;7.59;56.57;101693.06;5404524;32;33084;-72
2023/01/25 13:38:02;;;;;;;;;;;;;;;8.20;54.22;101689.12;5376458;32;35926;-89
2023/01/25 13:41:10;;;;;;;;;;;;;;;8.03;54.17;101689.25;5399491;32;35834;-87
2023/01/25 13:44:21;;;;;;;;;;;;;;;8.04;55.13;101684.00;5396246;32;35704;-90
2023/01/25 13:47:28;;;;;;;;;;;;;;;7.87;55.37;101691.16;5396404;32;45025;-80
2023/01/25 13:50:31;;;;;;;;;;;;;;;7.14;57.97;101691.53;5386245;32;36162;-69
2023/01/25 13:53:38;;;;;;;;;;;;;;;8.10;55.54;101683.97;5376895;32;34536;-84
2023/01/25 13:56:40;;;;;;;;;;;;;;;8.17;54.67;101679.53;5400512;32;34355;-87
2023/01/25 13:59:42;;;;;;;;;;;;;;;7.02;58.38;101688.13;5403361;32;34764;-84
2023/01/25 14:02:44;;;;;;;;;;;;;;;7.38;57.92;101678.34;5372136;32;35768;-72
2023/01/25 14:05:49;;;;;;;;;;;;;;;8.11;53.71;101680.50;5394837;32;46092;-75
2023/01/25 14:08:52;;;;;;;;;;;;;;;7.80;54.61;101671.13;5358530;32;851878;-75
2023/01/25 14:11:55;;;;;;;;;;;;;;;7.44;54.83;101670.47;5384591;32;34323;-78
2023/01/25 14:15:09;;;;;;;;;;;;;;;8.35;52.31;101660.19;5376308;32;34291;-76
2023/01/25 14:18:16;;;;;;;;;;;;;;;7.65;54.64;101676.44;5393853;32;35474;-76
2023/01/25 14:21:19;;;;;;;;;;;;;;;7.42;55.36;101666.16;5397705;32;44057;-77
2023/01/25 14:24:21;;;;;;;;;;;;;;;5.82;59.17;101673.47;5375408;32;34263;-75
2023/01/25 14:27:23;;;;;;;;;;;;;;;6.49;58.41;101676.06;5402459;32;34224;-75
2023/01/25 14:30:26;;;;;;;;;;;;;;;6.62;58.21;101671.69;5380733;32;35715;-73
2023/01/25 14:33:32;;;;;;;;;;;;;;;7.15;56.61;101672.34;5398008;32;34131;-69
2023/01/25 14:36:34;;;;;;;;;;;;;;;6.46;58.48;101660.41;5389148;32;34346;-69
2023/01/25 14:39:36;;;;;;;;;;;;;;;6.80;58.27;101668.16;5389744;32;33601;-81
2023/01/25 14:42:38;;;;;;;;;;;;;;;7.92;53.97;101657.97;5400996;32;34624;-82
2023/01/25 14:45:40;;;;;;;;;;;;;;;7.15;55.24;101668.03;5393622;32;34346;-73
2023/01/25 14:48:43;;;;;;;;;;;;;;;7.54;54.78;101664.31;5404597;32;34153;-89
2023/01/25 14:51:46;;;;;;;;;;;;;;;7.66;54.95;101665.09;5386766;32;34693;-73
2023/01/25 14:54:52;;;;;;;;;;;;;;;7.82;54.46;101651.03;5415517;32;44533;-92
2023/01/25 14:57:57;;;;;;;;;;;;;;;8.13;53.47;101657.75;5389222;32;34673;-74
2023/01/25 15:00:59;;;;;;;;;;;;;;;7.57;55.41;101659.06;5396883;32;34936;-84
2023/01/25 15:04:02;;;;;;;;;;;;;;;7.86;54.03;101648.41;5406559;32;34214;-89
2023/01/25 15:07:04;;;;;;;;;;;;;;;7.93;53.54;101650.97;5385748;32;35546;-88
2023/01/25 15:10:19;;;;;;;;;;;;;;;7.96;53.76;101643.94;5407689;32;44531;-80
2023/01/25 15:13:23;;;;;;;;;;;;;;;8.22;52.97;101654.19;5379048;32;35534;-86
2023/01/25 15:16:35;;;;;;;;;;;;;;;8.07;53.03;101649.97;5403714;32;34929;-75
2023/01/25 15:19:37;;;;;;;;;;;;;;;6.91;55.40;101658.53;5401620;32;37379;-69
2023/01/25 15:22:39;;;;;;;;;;;;;;;7.35;55.17;101643.53;5412845;32;34282;-85
2023/01/25 15:25:48;;;;;;;;;;;;;;;7.58;54.38;101654.69;5431219;32;34157;-87
2023/01/25 15:28:50;;;;;;;;;;;;;;;7.49;54.80;101650.41;5417471;32;44900;-88
2023/01/25 15:31:53;;;;;;;;;;;;;;;7.75;54.05;101646.75;5409900;32;34600;-84
2023/01/25 15:34:56;;;;;;;;;;;;;;;7.84;53.47;101637.06;5373057;32;34323;-79
2023/01/25 15:37:58;;;;;;;;;;;;;;;8.20;53.00;101642.00;5380407;32;35085;-75
2023/01/25 15:41:01;;;;;;;;;;;;;;;7.96;53.42;101623.00;5395297;32;35428;-77
2023/01/25 15:44:03;;;;;;;;;;;;;;;7.87;54.03;101649.25;5388386;32;34401;-78
2023/01/25 15:47:05;;;;;;;;;;;;;;;7.38;55.78;101649.59;5402842;32;36275;-79
2023/01/25 15:50:09;;;;;;;;;;;;;;;7.80;54.60;101650.19;5377992;32;34255;-76
2023/01/25 15:53:15;;;;;;;;;;;;;;;7.81;54.37;101642.31;5385837;32;34345;-78
2023/01/25 15:56:18;;;;;;;;;;;;;;;7.37;56.25;101652.22;5395447;32;43591;-75
2023/01/25 15:59:20;;;;;;;;;;;;;;;6.71;57.92;101650.78;5389546;32;34322;-75
2023/01/25 16:02:23;;;;;;;;;;;;;;;7.85;54.54;101641.41;5404866;32;35737;-76